createdAt,value
2018-12-25T00:01:23.776Z,95.80
2018-12-25T00:04:07.433Z,95.70
2018-12-25T00:06:37.608Z,95.70
2018-12-25T00:09:08.266Z,94.80
2018-12-25T00:11:57.217Z,94.30
2018-12-25T00:14:38.814Z,94.10
2018-12-25T00:20:04.036Z,94.00
2018-12-25T00:25:29.730Z,94.50
2018-12-25T00:28:11.161Z,94.40
2018-12-25T00:33:46.850Z,94.20
2018-12-25T00:39:12.352Z,94.60
2018-12-25T00:44:37.455Z,95.00
2018-12-25T00:47:18.943Z,95.50
2018-12-25T00:50:00.925Z,95.30
2018-12-25T00:58:16.898Z,95.00
2018-12-25T01:00:59.762Z,95.10
2018-12-25T01:03:40.762Z,95.00
2018-12-25T01:06:22.031Z,95.20
2018-12-25T01:09:03.939Z,95.20
2018-12-25T01:11:45.685Z,95.50
2018-12-25T01:17:11.679Z,95.00
2018-12-25T01:19:53.308Z,95.20
2018-12-25T01:22:34.391Z,95.20
2018-12-25T01:28:00.732Z,95.40
2018-12-25T01:30:42.530Z,95.40
2018-12-25T01:33:22.819Z,95.30
2018-12-25T01:38:55.166Z,95.50
2018-12-25T01:41:33.891Z,95.20
2018-12-25T01:44:14.783Z,95.00
2018-12-25T01:49:44.796Z,94.60
2018-12-25T01:52:25.776Z,94.80
2018-12-25T01:55:07.056Z,95.10
2018-12-25T02:00:31.575Z,94.60
2018-12-25T02:05:54.714Z,94.60
2018-12-25T02:11:19.600Z,94.80
2018-12-25T02:14:00.902Z,95.10
2018-12-25T02:16:42.487Z,95.20
2018-12-25T02:19:24.126Z,95.20
2018-12-25T02:21:53.678Z,95.30
2018-12-25T02:24:42.742Z,95.40
2018-12-25T02:27:24.566Z,95.30
2018-12-25T02:30:05.577Z,94.90
2018-12-25T02:32:47.400Z,95.00
2018-12-25T02:35:27.326Z,94.80
2018-12-25T02:38:09.463Z,94.70
2018-12-25T02:40:50.927Z,94.80
2018-12-25T02:43:34.539Z,94.70
2018-12-25T02:49:00.134Z,94.80
2018-12-25T02:54:28.081Z,95.10
2018-12-25T02:59:54.428Z,95.60
2018-12-25T03:02:38.339Z,95.70
2018-12-25T03:08:10.798Z,95.20
2018-12-25T03:13:39.115Z,94.80
2018-12-25T03:16:20.957Z,94.90
2018-12-25T03:19:04.571Z,95.00
2018-12-25T03:21:49.053Z,94.90
2018-12-25T03:24:33.118Z,95.00
2018-12-25T03:30:00.318Z,95.50
2018-12-25T03:32:42.765Z,95.40
2018-12-25T03:35:28.692Z,95.50
2018-12-25T03:40:59.935Z,95.60
2018-12-25T03:43:41.507Z,95.50
2018-12-25T03:46:22.880Z,95.40
2018-12-25T03:49:04.601Z,95.50
2018-12-25T03:51:45.615Z,95.50
2018-12-25T03:57:00.557Z,95.80
2018-12-25T03:59:49.361Z,95.80
2018-12-25T04:02:40.508Z,95.90
2018-12-25T04:05:20.557Z,96.00
2018-12-25T04:08:02.041Z,96.10
2018-12-25T04:10:42.131Z,96.00
2018-12-25T04:13:25.152Z,95.60
2018-12-25T04:18:53.664Z,95.60
2018-12-25T04:24:22.326Z,95.40
2018-12-25T04:35:24.589Z,95.80
2018-12-25T04:40:52.352Z,96.20
2018-12-25T04:46:12.776Z,96.10
2018-12-25T04:48:56.363Z,96.00
2018-12-25T04:51:37.993Z,95.50
2018-12-25T04:54:22.238Z,95.60
2018-12-25T04:57:03.485Z,95.70
2018-12-25T04:59:45.123Z,95.60
2018-12-25T05:02:28.730Z,95.80
2018-12-25T05:05:10.993Z,95.90
2018-12-25T05:07:52.683Z,96.00
2018-12-25T05:10:33.006Z,96.20
2018-12-25T05:13:14.807Z,96.40
2018-12-25T05:18:41.943Z,96.30
2018-12-25T05:24:10.548Z,96.20
2018-12-25T05:29:37.829Z,96.50
2018-12-25T05:32:24.229Z,96.70
2018-12-25T05:40:43.050Z,96.50
2018-12-25T05:46:13.486Z,96.50
2018-12-25T05:48:56.716Z,96.40
2018-12-25T05:51:38.498Z,96.50
2018-12-25T05:54:23.982Z,96.60
2018-12-25T05:57:06.909Z,96.90
2018-12-25T06:02:36.928Z,97.40
2018-12-25T06:05:20.851Z,97.30
2018-12-25T06:08:05.368Z,97.40
2018-12-25T06:10:35.301Z,97.40
2018-12-25T06:13:24.007Z,97.40
2018-12-25T06:16:12.662Z,97.40
2018-12-25T06:21:50.891Z,97.50
2018-12-25T06:24:32.257Z,97.30
2018-12-25T06:27:14.202Z,97.30
2018-12-25T06:32:44.653Z,97.40
2018-12-25T06:35:24.868Z,97.70
2018-12-25T06:38:08.401Z,97.20
2018-12-25T06:40:52.505Z,97.10
2018-12-25T06:43:28.622Z,97.30
2018-12-25T06:48:55.424Z,97.50
2018-12-25T06:51:36.919Z,97.50
2018-12-25T06:57:11.806Z,97.50
2018-12-25T06:59:55.375Z,97.60
2018-12-25T07:02:35.111Z,97.30
2018-12-25T07:08:05.663Z,97.00
2018-12-25T07:10:47.691Z,97.10
2018-12-25T07:21:52.435Z,96.60
2018-12-25T07:24:33.971Z,96.80
2018-12-25T07:27:16.514Z,96.80
2018-12-25T07:29:58.067Z,96.90
2018-12-25T07:32:42.764Z,96.80
2018-12-25T07:35:26.190Z,96.70
2018-12-25T07:38:06.887Z,96.50
2018-12-25T07:43:32.586Z,96.50
2018-12-25T07:48:59.410Z,96.60
2018-12-25T07:54:30.291Z,96.20
2018-12-25T07:59:58.315Z,96.60
2018-12-25T08:02:39.763Z,96.60
2018-12-25T08:05:25.019Z,96.80
2018-12-25T08:08:12.637Z,96.80
2018-12-25T08:10:56.646Z,96.80
2018-12-25T08:13:37.713Z,97.00
2018-12-25T08:16:22.581Z,97.00
2018-12-25T08:21:50.588Z,96.80
2018-12-25T08:24:31.662Z,96.60
2018-12-25T08:27:12.653Z,96.60
2018-12-25T08:29:56.662Z,96.40
2018-12-25T08:35:22.146Z,96.20
2018-12-25T08:38:10.851Z,96.10
2018-12-25T08:40:55.037Z,96.10
2018-12-25T08:43:36.652Z,96.10
2018-12-25T08:46:17.447Z,96.00
2018-12-25T08:51:46.277Z,96.00
2018-12-25T08:57:11.946Z,96.00
2018-12-25T09:02:38.177Z,96.10
2018-12-25T09:05:19.725Z,96.10
2018-12-25T09:08:01.221Z,96.00
2018-12-25T09:10:43.288Z,96.00
2018-12-25T09:13:25.211Z,96.10
2018-12-25T09:18:51.123Z,96.00
2018-12-25T09:24:30.033Z,95.80
2018-12-25T09:27:11.623Z,95.80
2018-12-25T09:36:01.894Z,94.60
2018-12-25T09:41:28.000Z,94.50
2018-12-25T09:46:53.916Z,94.50
2018-12-25T09:49:37.302Z,94.30
2018-12-25T09:52:18.898Z,94.40
2018-12-25T09:55:00.405Z,94.30
2018-12-25T09:57:45.059Z,94.30
2018-12-25T10:00:26.323Z,94.30
2018-12-25T10:03:07.131Z,94.20
2018-12-25T10:05:48.302Z,94.20
2018-12-25T10:08:29.857Z,94.50
2018-12-25T10:13:50.135Z,94.10
2018-12-25T10:16:31.014Z,93.90
2018-12-25T10:19:12.668Z,93.90
2018-12-25T10:22:02.747Z,93.90
2018-12-25T10:24:38.292Z,94.10
2018-12-25T10:27:19.838Z,93.80
2018-12-25T10:30:01.247Z,94.20
2018-12-25T10:32:31.366Z,93.80
2018-12-25T10:35:20.371Z,93.70
2018-12-25T10:38:04.763Z,93.60
2018-12-25T10:43:30.737Z,93.80
2018-12-25T10:46:11.793Z,93.80
2018-12-25T10:48:52.663Z,93.80
2018-12-25T10:51:34.221Z,93.60
2018-12-25T10:54:16.103Z,93.50
2018-12-25T10:56:57.537Z,93.70
2018-12-25T10:59:41.994Z,93.50
2018-12-25T11:02:23.367Z,93.50
2018-12-25T11:05:04.351Z,93.80
2018-12-25T11:07:46.304Z,93.50
2018-12-25T11:10:30.103Z,93.00
2018-12-25T11:16:07.611Z,92.90
2018-12-25T11:21:33.359Z,92.90
2018-12-25T11:27:03.050Z,92.70
2018-12-25T11:29:44.624Z,92.20
2018-12-25T11:35:15.122Z,92.10
2018-12-25T11:37:55.034Z,91.70
2018-12-25T11:40:35.858Z,91.50
2018-12-25T11:46:01.211Z,91.20
2018-12-25T11:48:42.844Z,90.80
2018-12-25T11:51:24.396Z,89.70
2018-12-25T11:54:06.114Z,87.70
2018-12-25T11:56:47.632Z,83.10
2018-12-25T11:59:29.753Z,75.00
2018-12-25T12:02:17.183Z,67.60
2018-12-25T12:07:35.411Z,56.80
2018-12-25T12:15:46.398Z,51.00
2018-12-25T12:18:28.004Z,49.90
2018-12-25T12:21:12.457Z,49.40
2018-12-25T12:26:28.783Z,49.80
2018-12-25T12:29:17.649Z,49.50
2018-12-25T12:31:59.474Z,49.20
2018-12-25T12:34:41.807Z,48.00
2018-12-25T12:37:22.988Z,46.40
2018-12-25T12:42:47.802Z,43.60
2018-12-25T12:48:13.408Z,42.40
2018-12-25T12:50:55.431Z,41.80
2018-12-25T12:53:24.971Z,42.00
2018-12-25T12:56:13.895Z,45.10
2018-12-25T12:58:55.212Z,49.60
2018-12-25T13:04:20.615Z,61.10
2018-12-25T13:07:01.672Z,66.60
2018-12-25T13:12:31.590Z,73.80
2018-12-25T13:15:13.172Z,77.20
2018-12-25T13:17:54.558Z,80.40
2018-12-25T13:20:36.314Z,80.50
2018-12-25T13:23:17.991Z,81.40
2018-12-25T13:28:43.668Z,83.00
2018-12-25T13:34:09.486Z,83.50
2018-12-25T13:36:51.542Z,83.90
2018-12-25T13:39:35.508Z,84.30
2018-12-25T13:44:49.714Z,86.30
2018-12-25T13:56:01.195Z,85.50
2018-12-25T13:58:42.268Z,85.90
2018-12-25T14:04:27.527Z,86.10
2018-12-25T14:07:11.624Z,85.50
2018-12-25T14:09:52.769Z,85.10
2018-12-25T14:15:37.970Z,86.50
2018-12-25T14:21:07.036Z,88.30
2018-12-25T14:23:50.976Z,87.60
2018-12-25T14:26:32.963Z,87.00
2018-12-25T14:29:14.342Z,87.30
2018-12-25T14:34:42.082Z,88.50
2018-12-25T14:37:23.772Z,89.00
2018-12-25T14:40:05.112Z,89.10
2018-12-25T14:42:49.132Z,89.90
2018-12-25T14:48:15.904Z,89.00
2018-12-25T14:50:57.063Z,89.30
2018-12-25T14:53:38.915Z,89.60
2018-12-25T14:56:22.633Z,89.80
2018-12-25T14:59:07.687Z,90.00
2018-12-25T15:01:49.101Z,90.20
2018-12-25T15:04:31.350Z,90.50
2018-12-25T15:10:00.938Z,90.30
2018-12-25T15:12:43.145Z,90.70
2018-12-25T15:15:26.071Z,90.90
2018-12-25T15:18:07.969Z,91.20
2018-12-25T15:20:52.560Z,91.30
2018-12-25T15:23:33.615Z,91.40
2018-12-25T15:28:59.244Z,91.60
2018-12-25T15:31:41.042Z,91.60
2018-12-25T15:34:22.855Z,91.60
2018-12-25T15:37:05.104Z,91.80
2018-12-25T15:39:49.822Z,92.10
2018-12-25T15:45:19.253Z,92.30
2018-12-25T15:50:46.078Z,92.80
2018-12-25T15:53:27.829Z,93.20
2018-12-25T15:56:09.456Z,93.20
2018-12-25T16:01:35.086Z,93.80
2018-12-25T16:04:16.499Z,93.70
2018-12-25T16:06:58.363Z,93.70
2018-12-25T16:12:21.865Z,94.00
2018-12-25T16:18:00.687Z,94.20
2018-12-25T16:20:42.343Z,94.00
2018-12-25T16:26:08.862Z,94.00
2018-12-25T16:28:52.178Z,94.00
2018-12-25T16:31:33.622Z,94.00
2018-12-25T16:34:15.187Z,94.10
2018-12-25T16:36:57.423Z,94.30
2018-12-25T16:42:25.028Z,94.40
2018-12-25T16:45:06.428Z,94.30
2018-12-25T16:47:48.303Z,94.60
2018-12-25T16:53:18.072Z,94.90
2018-12-25T16:58:43.463Z,94.90
2018-12-25T17:01:25.572Z,94.70
2018-12-25T17:04:06.813Z,94.60
2018-12-25T17:06:48.361Z,94.50
2018-12-25T17:09:30.501Z,94.50
2018-12-25T17:12:11.929Z,94.60
2018-12-25T17:17:44.435Z,94.60
2018-12-25T17:25:58.415Z,94.70
2018-12-25T17:28:40.133Z,94.80
2018-12-25T17:31:24.736Z,95.10
2018-12-25T17:36:50.309Z,95.10
2018-12-25T17:45:02.614Z,95.20
2018-12-25T17:47:44.085Z,95.20
2018-12-25T17:50:25.102Z,95.30
2018-12-25T17:53:07.371Z,95.30
2018-12-25T17:55:48.728Z,95.30
2018-12-25T18:01:19.296Z,95.50
2018-12-25T18:06:45.788Z,95.40
2018-12-25T18:09:28.401Z,95.50
2018-12-25T18:12:12.270Z,95.50
2018-12-25T18:14:54.495Z,95.60
2018-12-25T18:17:38.567Z,95.70
2018-12-25T18:20:19.768Z,95.80
2018-12-25T18:23:03.823Z,95.80
2018-12-25T18:25:46.465Z,95.70
2018-12-25T18:28:28.348Z,95.70
2018-12-25T18:33:52.222Z,95.80
2018-12-25T18:39:19.633Z,96.00
2018-12-25T18:42:01.796Z,96.00
2018-12-25T18:44:43.561Z,96.00
2018-12-25T18:47:28.301Z,96.10
2018-12-25T18:52:53.942Z,96.10
2018-12-25T18:58:19.755Z,96.30
2018-12-25T19:03:44.982Z,96.50
2018-12-25T19:09:15.682Z,96.40
2018-12-25T19:14:43.783Z,96.30
2018-12-25T19:17:26.114Z,96.40
2018-12-25T19:20:08.008Z,96.40
2018-12-25T19:22:49.610Z,96.30
2018-12-25T19:25:34.863Z,96.20
2018-12-25T19:28:16.424Z,96.40
2018-12-25T19:30:57.798Z,96.40
2018-12-25T19:33:39.323Z,96.50
2018-12-25T19:36:23.909Z,96.50
2018-12-25T19:39:05.354Z,96.80
2018-12-25T19:41:46.945Z,96.80
2018-12-25T19:44:27.392Z,96.60
2018-12-25T19:47:08.728Z,96.60
2018-12-25T19:49:49.905Z,96.50
2018-12-25T19:52:35.073Z,96.60
2018-12-25T19:58:07.057Z,96.70
2018-12-25T20:03:40.576Z,97.10
2018-12-25T20:06:22.219Z,97.20
2018-12-25T20:09:04.881Z,96.90
2018-12-25T20:11:46.592Z,96.90
2018-12-25T20:14:31.663Z,97.00
2018-12-25T20:19:59.660Z,97.10
2018-12-25T20:25:25.540Z,97.00
2018-12-25T20:28:07.398Z,97.10
2018-12-25T20:33:42.326Z,97.20
2018-12-25T20:36:24.361Z,97.50
2018-12-25T20:39:06.231Z,97.50
2018-12-25T20:41:47.667Z,97.60
2018-12-25T20:44:28.710Z,97.60
2018-12-25T20:52:45.883Z,97.40
2018-12-25T20:55:27.636Z,97.20
2018-12-25T20:58:12.075Z,97.60
2018-12-25T21:06:25.856Z,97.30
2018-12-25T21:11:57.427Z,97.30
2018-12-25T21:14:39.728Z,97.20
2018-12-25T21:17:21.383Z,97.10
2018-12-25T21:20:02.829Z,97.20
2018-12-25T21:22:46.662Z,97.30
2018-12-25T21:28:17.830Z,97.30
2018-12-25T21:31:01.183Z,97.20
2018-12-25T21:33:46.438Z,97.30
2018-12-25T21:36:28.064Z,97.20
2018-12-25T21:41:57.678Z,97.10
2018-12-25T21:44:39.300Z,97.50
2018-12-25T21:47:20.744Z,97.10
2018-12-25T21:50:04.821Z,97.20
2018-12-25T21:52:46.330Z,97.20
2018-12-25T21:55:28.000Z,97.30
2018-12-25T21:58:10.126Z,97.40
2018-12-25T22:00:51.885Z,97.30
2018-12-25T22:03:33.424Z,97.60
2018-12-25T22:06:17.964Z,97.50
2018-12-25T22:09:01.633Z,97.50
2018-12-25T22:11:42.712Z,97.70
2018-12-25T22:14:23.486Z,97.80
2018-12-25T22:17:04.933Z,97.80
2018-12-25T22:19:46.644Z,97.80
2018-12-25T22:22:27.709Z,98.00
2018-12-25T22:24:57.121Z,98.10
2018-12-25T22:27:45.624Z,97.90
2018-12-25T22:30:34.122Z,97.50
2018-12-25T22:33:15.692Z,97.30
2018-12-25T22:35:58.189Z,97.30
2018-12-25T22:38:38.951Z,97.40
2018-12-25T22:41:20.443Z,97.40
2018-12-25T22:44:01.933Z,97.50
2018-12-25T22:46:43.355Z,97.60
2018-12-25T22:49:24.420Z,97.70
2018-12-25T22:52:07.061Z,97.70
2018-12-25T22:54:48.506Z,97.60
2018-12-25T23:00:18.935Z,97.30
2018-12-25T23:03:01.145Z,97.30
2018-12-25T23:05:44.392Z,97.40
2018-12-25T23:08:25.675Z,97.50
2018-12-25T23:11:07.079Z,97.70
2018-12-25T23:13:47.815Z,97.70
2018-12-25T23:16:29.107Z,97.70
2018-12-25T23:19:10.730Z,97.40
2018-12-25T23:21:53.537Z,97.40
2018-12-25T23:24:23.064Z,97.30
2018-12-25T23:27:11.475Z,97.30
2018-12-25T23:29:59.918Z,97.40
2018-12-25T23:32:41.222Z,97.40
2018-12-25T23:35:22.281Z,97.30
2018-12-25T23:38:03.646Z,97.30
2018-12-25T23:43:40.828Z,97.40
2018-12-25T23:46:22.521Z,97.40
2018-12-25T23:49:03.156Z,97.40
2018-12-25T23:51:43.826Z,97.50
2018-12-25T23:54:25.286Z,97.50
2018-12-25T23:59:45.078Z,97.40
